LOWW Airport Information

Runway Information
Runway 11 Length 11483 ft width 148 ft
Elevation 575 ft Threshold 0 ft Heading 116
Runway 29 Length 11483 ft Width 148 ft
Elevation 600 ft Threshold 0 ft Heading 296
Runway 16 Length 11811 ft width 148 ft
Elevation 597 ft Threshold 2953 ft Heading 164
Runway 34 Length 11811 ft Width 148 ft
Elevation 586 ft Threshold 0 ft Heading 344
Airport Frequencies
Type APP Name WIEN RADAR Frequency 128.2 MHZ
Type ATIS Name ATIS Frequency 121.725 MHZ
Type CLD Name WIEN CLNC Frequency 122.125 MHZ
Type DIR Name DIRECTOR Frequency 119.8 MHZ
Type GND Name WIEN GND Frequency 121.6 MHZ
Type INFO Name INFO Frequency 118.525 MHZ
Type RMP Name VIENNA ICE Frequency 131.625 MHZ
Type TWR Name WIEN TWR Frequency 119.4 MHZ
Airport Navaids
Type NDB Name Bruck Frequency 408 KHZ
Type VOR-DME Name Fischamend Frequency 110400 KHZ
Type VOR-DME Name Sollenau Frequency 115500 KHZ
Type NDB Name Steinhof Frequency 293 KHZ
Type VOR-DME Name Wagram Frequency 112200 KHZ
Type NDB Name Schwechat Frequency 303 KHZ
Airport Weather Information & NOTAM
ADDS - METARS form results

(2132 UTC 17 December 2017)
 
METAR text: LOWW 172120Z 29007KT 9999 FEW015 BKN032 01/M01 Q1022 NOSIG
Conditions at: LOWW (VIENNA/SCHWECHAT, AT) observed 2120 UTC 17 December 2017
Temperature: 1.0°C (34°F)
Dewpoint: -1.0°C (30°F) [RH = 86%]
Pressure (altimeter): 30.18 inches Hg (1022.0 mb)
Winds: from the WNW (290 degrees) at 8 MPH (7 knots; 3.6 m/s)
Visibility: 6 or more miles (10+ km)
Ceiling: 3200 feet AGL
Clouds: few clouds at 1500 feet AGL
broken clouds at 3200 feet AGL
Weather: no significant weather observed at this time

METAR text: LOWW 172050Z 30006KT 9999 FEW017 SCT034 BKN042 01/M01 Q1022 NOSIG
Conditions at: LOWW (VIENNA/SCHWECHAT, AT) observed 2050 UTC 17 December 2017
Temperature: 1.0°C (34°F)
Dewpoint: -1.0°C (30°F) [RH = 86%]
Pressure (altimeter): 30.18 inches Hg (1022.0 mb)
Winds: from the WNW (300 degrees) at 7 MPH (6 knots; 3.1 m/s)
Visibility: 6 or more miles (10+ km)
Ceiling: 4200 feet AGL
Clouds: few clouds at 1700 feet AGL
scattered clouds at 3400 feet AGL
broken clouds at 4200 feet AGL
Weather: no significant weather observed at this time